地図

経路データ

SID SEASON NUMBER BASIN SUBBASIN NAME ISO_TIME NATURE LAT LON WMO_WIND WMO_PRES WMO_AGENCY TRACK_TYPE DIST2LAND LANDFALL IFLAG USA_AGENCY USA_ATCF_ID USA_LAT USA_LON USA_RECORD USA_STATUS USA_WIND USA_PRES USA_SSHS USA_R34_NE USA_R34_SE USA_R34_SW USA_R34_NW USA_R50_NE USA_R50_SE USA_R50_SW USA_R50_NW USA_R64_NE USA_R64_SE USA_R64_SW USA_R64_NW USA_POCI USA_ROCI USA_RMW USA_EYE TOKYO_LAT TOKYO_LON TOKYO_GRADE TOKYO_WIND TOKYO_PRES TOKYO_R50_DIR TOKYO_R50_LONG TOKYO_R50_SHORT TOKYO_R30_DIR TOKYO_R30_LONG TOKYO_R30_SHORT TOKYO_LAND CMA_LAT CMA_LON CMA_CAT CMA_WIND CMA_PRES HKO_LAT HKO_LON HKO_CAT HKO_WIND HKO_PRES NEWDELHI_LAT NEWDELHI_LON NEWDELHI_GRADE NEWDELHI_WIND NEWDELHI_PRES NEWDELHI_CI NEWDELHI_DP NEWDELHI_POCI REUNION_LAT REUNION_LON REUNION_TYPE REUNION_WIND REUNION_PRES REUNION_TNUM REUNION_CI REUNION_RMW REUNION_R34_NE REUNION_R34_SE REUNION_R34_SW REUNION_R34_NW REUNION_R50_NE REUNION_R50_SE REUNION_R50_SW REUNION_R50_NW REUNION_R64_NE REUNION_R64_SE REUNION_R64_SW REUNION_R64_NW BOM_LAT BOM_LON BOM_TYPE BOM_WIND BOM_PRES BOM_TNUM BOM_CI BOM_RMW BOM_R34_NE BOM_R34_SE BOM_R34_SW BOM_R34_NW BOM_R50_NE BOM_R50_SE BOM_R50_SW BOM_R50_NW BOM_R64_NE BOM_R64_SE BOM_R64_SW BOM_R64_NW BOM_ROCI BOM_POCI BOM_EYE BOM_POS_METHOD BOM_PRES_METHOD NADI_LAT NADI_LON NADI_CAT NADI_WIND NADI_PRES WELLINGTON_LAT WELLINGTON_LON WELLINGTON_WIND WELLINGTON_PRES DS824_LAT DS824_LON DS824_STAGE DS824_WIND DS824_PRES TD9636_LAT TD9636_LON TD9636_STAGE TD9636_WIND TD9636_PRES TD9635_LAT TD9635_LON TD9635_WIND TD9635_PRES TD9635_ROCI NEUMANN_LAT NEUMANN_LON NEUMANN_CLASS NEUMANN_WIND NEUMANN_PRES MLC_LAT MLC_LON MLC_CLASS MLC_WIND MLC_PRES USA_GUST BOM_GUST BOM_GUST_PER REUNION_GUST REUNION_GUST_PER USA_SEAHGT USA_SEARAD_NE USA_SEARAD_SE USA_SEARAD_SW USA_SEARAD_NW STORM_SPEED STORM_DIR
2020293N23139 2020 95 WP MM NOT_NAMED 2020-10-19 06:00:00 NR 22.6000 139.400 main 1256 1218 O_____________ jtwc_wp WP202020 22.6000 139.400 DB 20 1007 -3 7 329
2020293N23139 2020 95 WP MM NOT_NAMED 2020-10-19 09:00:00 NR 22.9151 139.190 main 1218 1180 P_____________ WP202020 22.9151 139.190 DB 20 1007 -3 7 328
2020293N23139 2020 95 WP MM NOT_NAMED 2020-10-19 12:00:00 NR 23.2000 139.000 main 1180 1156 O_____________ jtwc_wp WP202020 23.2000 139.000 DB 20 1007 -3 6 329
2020293N23139 2020 95 WP MM NOT_NAMED 2020-10-19 15:00:00 NR 23.4425 138.842 main 1152 1119 P_____________ WP202020 23.4425 138.842 DB 22 1006 -3 6 331
2020293N23139 2020 95 WP MM NOT_NAMED 2020-10-19 18:00:00 TS 23.7000 138.700 main 1119 1081 O_____________ jtwc_wp WP202020 23.7000 138.700 TD 25 1005 -1 1008 180 50 7 333
2020293N23139 2020 95 WP MM NOT_NAMED 2020-10-19 21:00:00 TS 24.0575 138.505 main 1070 1035 P_____________ WP202020 24.0575 138.505 TD 25 1005 -1 1008 180 50 8 339
2020293N23139 2020 95 WP MM NOT_NAMED 2020-10-20 00:00:00 TS 24.4000 138.400 main 1035 1014 O_____________ jtwc_wp WP202020 24.4000 138.400 TD 25 1005 -1 1008 180 50 6 0
2020293N23139 2020 95 WP MM NOT_NAMED 2020-10-20 03:00:00 TS 24.6299 138.482 main 1016 997 P_____________ WP202020 24.6299 138.482 TD 25 1005 -1 1009 165 50 5 34
2020293N23139 2020 95 WP MM NOT_NAMED 2020-10-20 06:00:00 TS 24.8000 138.700 main 1000 987 O_____________ jtwc_wp WP202020 24.8000 138.700 TD 25 1006 -1 1010 150 50 6 53
2020293N23139 2020 95 WP MM NOT_NAMED 2020-10-20 09:00:00 TS 24.9726 138.992 main 987 983 P_____________ WP202020 24.9726 138.992 TD 27 1005 -1 1010 142 50 6 61
2020293N23139 2020 95 WP MM NOT_NAMED 2020-10-20 12:00:00 TS 25.1000 139.300 main 986 979 O_____________ jtwc_wp WP202020 25.1000 139.300 TD 30 1004 -1 1011 135 50 5 66
2020293N23139 2020 95 WP MM NOT_NAMED 2020-10-20 15:00:00 TS 25.1875 139.530 main 982 982 P_____________ WP202020 25.1875 139.530 TD 30 1004 -1 1010 135 47 4 75
2020293N23139 2020 95 WP MM NOT_NAMED 2020-10-20 18:00:00 TS 25.2000 139.700 main 989 989 O_____________ jtwc_wp WP202020 25.2000 139.700 TD 30 1004 -1 1009 135 45 3 100
2020293N23139 2020 95 WP MM NOT_NAMED 2020-10-20 21:00:00 TS 25.1375 139.845 main 1003 1003 P_____________ WP202020 25.1375 139.845 TD 30 1002 -1 1009 135 45 3 138
2020293N23139 2020 95 WP MM NOT_NAMED 2020-10-21 00:00:00 TS 25.0000 139.900 main 1018 1018 O_____________ jtwc_wp WP202020 25.0000 139.900 TD 30 1001 -1 1009 135 45 3 0
2020293N23139 2020 95 WP MM NOT_NAMED 2020-10-21 03:00:00 TS 24.8150 139.830 main 1035 1035 P_____________ WP202020 24.8150 139.830 TD 27 1002 -1 1008 137 45 4 204
2020293N23139 2020 95 WP MM NOT_NAMED 2020-10-21 06:00:00 TS 24.6000 139.700 main 1052 1052 O_____________ jtwc_wp WP202020 24.6000 139.700 TD 25 1003 -1 1008 140 45 5 204
2020293N23139 2020 95 WP MM NOT_NAMED 2020-10-21 09:00:00 TS 24.3400 139.592 main 1080 1080 P_____________ WP202020 24.3400 139.592 TD 22 1005 -1 1008 137 45 4 204
2020293N23139 2020 95 WP MM NOT_NAMED 2020-10-21 12:00:00 NR 24.2000 139.500 main 1088 1074 O_____________ jtwc_wp WP202020 24.2000 139.500 DB 20 1007 -3 1009 135 45 2 264
2020293N23139 2020 95 WP MM NOT_NAMED 2020-10-21 15:00:00 NR 24.3250 139.428 main 1074 1042 P_____________ WP202020 24.3250 139.428 DB 20 1007 -3 1009 127 42 4 348
2020293N23139 2020 95 WP MM NOT_NAMED 2020-10-21 18:00:00 NR 24.6000 139.400 main 1042 1021 O_____________ jtwc_wp WP202020 24.6000 139.400 DB 20 1007 -3 1009 120 40 5 5
2020293N23139 2020 95 WP MM NOT_NAMED 2020-10-21 21:00:00 NR 24.8625 139.465 main 1014 982 P_____________ WP202020 24.8625 139.465 DB 20 1007 -3 1009 115 35 6 8
2020293N23139 2020 95 WP MM NOT_NAMED 2020-10-22 00:00:00 NR 25.2000 139.500 main 982 937 O_____________ jtwc_wp WP202020 25.2000 139.500 DB 20 1007 -3 1009 110 30 8 352
2020293N23139 2020 95 WP MM NOT_NAMED 2020-10-22 03:00:00 NR 25.6276 139.343 main 933 878 P_____________ WP202020 25.6276 139.343 DB 20 1007 -3 1009 110 30 9 343
2020293N23139 2020 95 WP MM NOT_NAMED 2020-10-22 06:00:00 NR 26.1000 139.200 main 878 836 O_____________ jtwc_wp WP202020 26.1000 139.200 DB 20 1007 -3 1009 110 30 9 354
2020293N23139 2020 95 WP MM NOT_NAMED 2020-10-22 09:00:00 NR 26.4974 139.233 main 836 793 P_____________ WP202020 26.4974 139.233 DB 17 1008 -3 1009 117 30 9 11
2020293N23139 2020 95 WP MM NOT_NAMED 2020-10-22 12:00:00 NR 27.0000 139.400 main 793 737 O_____________ jtwc_wp WP202020 27.0000 139.400 DB 15 1009 -3 1009 125 30 13 18
2020293N23139 2020 95 WP MM NOT_NAMED 2020-10-22 15:00:00 NR 27.7302 139.671 main 737 668 P_____________ WP202020 27.7302 139.671 DB 15 1009 -3 1009 125 30 17 18
2020293N23139 2020 95 WP MM NOT_NAMED 2020-10-22 18:00:00 ET 28.6000 140.000 main 668 O_____________ jtwc_wp WP202020 28.6000 140.000 EX 15 1009 -4 1009 125 30 18 18

デジタル台風データ・検索

IBTrACS Databaseについて

本データベースは、米国NOAAが公開する1842年以降の世界の熱帯低気圧のベストトラックデータアーカイブInternational Best Track Archive for Climate Stewardship (IBTrACS)を、ウェブで閲覧しやすい形式に変換したものです。

最終更新日:2022-08-16